Tiempo atmosférico en la estación meteorológica de Asturias Aeropuerto, Asturias (127 m.)



Fecha
DESCASC
Temp. máxima en grados centígrados (hora)
DESCASC
Temp. mínima en grados centígrados (hora)
DESCASC
Temp. media en grados centígrados
DESCASC
Racha de viento máxima en m/sg (hora)
DESCASC
Velocidad máxima media en intervalos de 10 minutos(hora)
DESCASC
Precipitaciones diarias en mm
DESCASC
Precipitaciones de 00:00 a 06:00 en mm
DESCASC
Precipitaciones de 06:00 a 12:00 en mm
DESCASC
Precipitaciones de 12:00 a 18:00 en mm
DESCASC
Precipitaciones de 18:00 a 24:00 en mm
DESCASC
18-01-2018 13.3 (15:40) 3.4 (07:50) 8.4 13.89 (15:50) 8.89 (15:50) 0 0 0 0 0
17-01-2018 13.5 (14:30) 6.8 (23:59) 10.2 18.89 (03:10) 12.78 (03:00) 0 0 0 0 0
16-01-2018 18.6 (16:30) 12.6 (22:30) 15.6 18.06 (22:40) 11.94 (23:00) -- 0 -- 0 0
15-01-2018 15.3 (23:59) 5.3 (04:40) 10.3 13.33 (18:20) 8.06 (18:20) 0 0 0 0 0
14-01-2018 11.8 (15:40) 5.6 (00:00) 8.7 8.33 (13:20) 5.28 (15:00) 0.8 0 0.8 0 0
13-01-2018 11.2 (17:10) 6.2 (00:00) 8.7 10.28 (18:00) 5.83 (18:00) 6.4 3.9 2.4 0.1 0
12-01-2018 11 (16:10) 5.9 (00:00) 8.5 9.72 (11:10) 4.72 (10:00) 0 0 0 0 0
11-01-2018 9.8 (12:10) 6.3 (00:00) 8.1 22.22 (02:30) 13.33 (02:30) 10.9 5.3 4.1 0.5 1
10-01-2018 13.2 (13:50) 6 (00:00) 9.6 30.28 (16:30) 15.56 (14:30) 3.2 0 0 3.2 0
09-01-2018 13.6 (16:50) 7.1 (00:00) 10.4 15 (23:10) 8.61 (21:40) 2 0 0.9 0.9 0.2
08-01-2018 12.3 (16:00) 6 (00:00) 9.2 9.72 (09:30) 5 (08:30) 0 0 0 0 0
07-01-2018 10.2 (17:00) 4.4 (00:00) 7.3 12.78 (10:30) 5.83 (08:10) 25.7 6.2 4 15.5 0
06-01-2018 9.6 (14:40) 4.1 (00:00) 6.9 9.17 (15:40) 5.28 (17:00) 4.6 0 0 3.3 1.3
05-01-2018 17.7 (00:40) 6.7 (00:00) 12.2 23.33 (04:40) 13.89 (04:50) 5.7 3.1 2.4 0.2 0
04-01-2018 18.7 (16:00) 15.7 (03:30) 17.2 20.56 (15:40) 11.39 (11:10) 0 0 0 0 0
03-01-2018 19.9 (02:50) 14.5 (00:00) 17.2 18.06 (00:10) 10.28 (05:30) 0 0 0 0 0
02-01-2018 20 (13:50) 13.1 (00:00) 16.6 15 (00:30) 8.61 (04:00) 0 0 0 0 0
01-01-2018 17.3 (14:30) 11.1 (00:00) 14.2 24.72 (12:00) 15.28 (12:00) 11.8 0 0 6 5.8
31-12-2017 15.5 (10:10) 7.6 (00:00) 11.5 24.72 (11:30) 16.67 (11:30) 10.3 0 4.4 5.9 0
30-12-2017 21.3 (15:00) 9.3 (00:00) 15.3 16.39 (04:10) 10.28 (04:00) 0 0 0 0 0
29-12-2017 18.7 (14:40) 11 (00:00) 14.9 16.39 (08:10) 10.83 (08:30) 3.2 2.9 0.3 0 0
28-12-2017 13.3 (13:30) 7.2 (00:00) 10.3 20.56 (10:00) 12.22 (10:00) 4.1 1.2 2.7 0.2 0
27-12-2017 11 (07:30) 7.1 (00:00) 9 24.72 (01:10) 16.11 (02:10) 7.9 3 2.4 2.4 0.1
26-12-2017 15.1 (20:10) 6.7 (00:00) 10.9 32.78 (22:40) 18.89 (22:40) 5.2 0.1 0 0 5.1
25-12-2017 14.5 (15:40) 5.4 (00:00) 10 19.72 (19:50) 12.22 (19:50) 2.2 0 0 0 2.2
24-12-2017 14.9 (16:20) 3.9 (00:00) 9.4 9.72 (07:50) 5.28 (08:50) 0 0 0 0 0

Gráficas

Temp. máximas Temp. mínimas Temp. medias Precipitaciones Rachas de viento máximas Velocidades máximas media en intervalos de 10 minutos

Datos horarios

Fecha y hora oficial Temperatura (ºC) Velocidad del viento (km/h) Dirección del viento Racha (km/h) Dirección de racha Precipitación (mm) Presión (hPa) Tendencia (hPa) Humedad (%)
2018-01-22 23:00:00 12.2 13 Sur 18 Sur 0 1013.4 -0.6 77
2018-01-22 22:00:00 11.6 3 Sur 22 Oeste 0 1013.6 0 88
2018-01-22 21:00:00 12.7 5 Oeste 15 Noroeste 0 1013.9 0.8 90
2018-01-22 20:00:00 13.5 6 Norte 15 Oeste 0 1014 1.1 83
2018-01-22 19:00:00 14.3 9 Oeste 15 Oeste 0 1013.6 1.2 75
2018-01-22 18:00:00 15.3 8 Oeste 18 Norte 0 1013.1 0.8 70
2018-01-22 17:00:00 15.2 9 Noroeste 18 Noroeste 0 1012.9 0.3 73
2018-01-22 16:00:00 16.4 12 Oeste 21 Oeste 0 1012.4 -0.8 65
2018-01-22 15:00:00 17.7 11 Sudoeste 26 Oeste 0 1012.3 -1.2 58
2018-01-22 14:00:00 17.5 21 Oeste 30 Sudoeste 0 1012.6 -0.7 57
2018-01-22 13:00:00 16.5 13 Sudoeste 24 Sudoeste 0 1013.2 0.3 60
2018-01-22 12:00:00 15.1 17 Sudoeste 30 Sudoeste 0 1013.5 0.7 62
2018-01-22 11:00:00 13 21 Sudoeste 33 Sudoeste 0 1013.3 0.7 66
2018-01-22 10:00:00 10.9 21 Sudoeste 35 Sudoeste 0 1012.9 0.4 72
2018-01-22 09:00:00 11.5 18 Sudoeste 32 Sudoeste 0 1012.8 0.6 72
2018-01-22 08:00:00 12.2 20 Oeste 39 Oeste 0 1012.6 0.7 75
2018-01-22 07:00:00 11.8 20 Oeste 30 Noroeste 0 1012.5 0.5 82
2018-01-22 06:00:00 10.3 9 Oeste 18 Oeste 0 1012.2 -0.1 81
2018-01-22 05:00:00 9.9 5 Sudoeste 13 Sudoeste 0 1011.9 -0.7 80
2018-01-22 04:00:00 10.2 5 Sudoeste 18 Oeste 0 1012 -1.1 82
2018-01-22 03:00:00 12.1 12 Oeste 24 Oeste 0 1012.3 -1 81
2018-01-22 02:00:00 12.2 13 Oeste 22 Oeste 0 1012.6 -0.6 80
2018-01-22 01:00:00 12.1 13 Oeste 22 Oeste 0 1013.1 -0.3 83
2018-01-22 00:00:00 10.4 10 Oeste 17 Oeste 0 1013.3 -0.2 96
2018-01-21 23:00:00 11.4 0 Calma 13 Noroeste 0 1013.2 -0.2 96
2018-01-21 22:00:00 12.2 11 Noroeste 21 Noroeste 0 1013.4 0.3 96
2018-01-21 21:00:00 12.5 10 Noroeste 21 Noroeste 0 1013.5 0.7 93
2018-01-21 20:00:00 12.6 4 Noroeste 15 Norte 0 1013.4 0.5 90
2018-01-21 19:00:00 13.5 7 Noroeste 17 Oeste 0 1013.1 0.2 82
2018-01-21 18:00:00 15.9 6 Oeste 24 Oeste 0 1012.8 -0.2 70
2018-01-21 17:00:00 16.7 10 Noroeste 22 Noroeste 0 1012.9 -0.6 70
2018-01-21 16:00:00 15.6 12 Oeste 24 Oeste 0 1012.9 -1.3 74
2018-01-21 15:00:00 15.4 13 Oeste 24 Oeste 0 1013 -1.2 74
2018-01-21 14:00:00 15.2 15 Oeste 30 Oeste 0 1013.5 -0.3 76
2018-01-21 13:00:00 14.9 22 Noroeste 33 Noroeste 0 1014.2 0.9 77
2018-01-21 12:00:00 18 15 Oeste 30 Sudoeste 0 1014.2 0.8 56
2018-01-21 11:00:00 16.1 19 Sudoeste 33 Sudoeste 0 1013.8 0.8 62
2018-01-21 10:00:00 14.9 22 Sudoeste 35 Sudoeste 0 1013.3 0.5 64
2018-01-21 09:00:00 14.1 12 Sudoeste 18 Sudoeste 0 1013.4 0.8 67
2018-01-21 08:00:00 14.6 12 Oeste 30 Oeste 0 1013 0.5 66
2018-01-21 07:00:00 14.8 16 Oeste 32 Oeste 0 1012.8 0.3 65
2018-01-21 06:00:00 14.7 14 Oeste 35 Oeste 0 1012.6 0.1 66
2018-01-21 05:00:00 14.6 16 Sudoeste 30 Sudoeste 0 1012.5 0.3 66
2018-01-21 04:00:00 14.2 13 Oeste 24 Oeste 0 1012.5 0.7 68
2018-01-21 03:00:00 14.2 12 Oeste 26 Oeste 0 1012.5 1.1 69
2018-01-21 02:00:00 14.7 16 Oeste 42 Oeste 0 1012.2 1.4 66
2018-01-21 01:00:00 15.8 26 Oeste 45 Oeste 0 1011.8 0.8 61
2018-01-21 00:00:00 15.8 25 Oeste 45 Oeste 0 1011.4 0.6 61
2018-01-20 23:00:00 16 28 Oeste 42 Oeste 0 1010.8 0.5 61
2018-01-20 22:00:00 15.6 20 Oeste 32 Sudoeste 0 1011 1.3 62
2018-01-20 21:00:00 15.1 16 Sudoeste 32 Sudoeste 0 1010.8 1.7 64
2018-01-20 20:00:00 15.5 22 Oeste 37 Sudoeste 0 1010.3 1.8 62
2018-01-20 19:00:00 15.6 22 Oeste 37 Oeste 0 1009.7 1.6 62
2018-01-20 18:00:00 15.7 22 Oeste 33 Oeste 0 1009.1 1.3 62
2018-01-20 17:00:00 16.4 18 Sudoeste 33 Sudoeste 0 1008.5 0.3 61
2018-01-20 16:00:00 16.7 19 Oeste 50 Oeste 0 1008.1 -0.7 61
2018-01-20 15:00:00 17 30 Oeste 50 Oeste 0 1007.8 -1.4 59
2018-01-20 14:00:00 16.4 25 Oeste 42 Oeste 0 1008.2 -0.6 60
2018-01-20 13:00:00 16.3 20 Oeste 41 Sudoeste 0 1008.8 0 61
2018-01-20 12:00:00 14.4 17 Sudoeste 35 Sudoeste 0 1009.2 0.4 65
2018-01-20 11:00:00 13.5 21 Sudoeste 39 Sudoeste 0 1008.8 0.2 66
2018-01-20 10:00:00 12.6 24 Sudoeste 50 Oeste 0 1008.8 0.7 65
2018-01-20 09:00:00 13.2 32 Oeste 55 Oeste 0 1008.8 0.5 63
2018-01-20 08:00:00 11.8 18 Oeste 33 Oeste 0 1008.6 0.3 58
2018-01-20 07:00:00 10.8 16 Oeste 30 Oeste 0 1008.1 -0.3 66
2018-01-20 06:00:00 10.5 10 Oeste 22 Oeste 0 1008.3 -0.9 67
2018-01-20 05:00:00 8.1 3 Sudoeste 15 Oeste 0 1008.3 -1.7 69
2018-01-20 04:00:00 9.5 9 Sudoeste 17 Sudoeste 0 1008.4 -2.2 65
2018-01-20 03:00:00 9.6 8 Sudoeste 18 Sudoeste 0 1009.2 -1.6 67
2018-01-20 02:00:00 9.2 11 Sudoeste 24 Sudoeste 0 1010 -1.6 70
2018-01-20 01:00:00 8.2 15 Sudoeste 26 Sudoeste 0 1010.6 -1.3 76
2018-01-20 00:00:00 8 16 Sudoeste 26 Sudoeste 0 1010.8 -0.9 79
2018-01-19 23:00:00 9.6 8 Sudoeste 24 Oeste 0 1011.6 -0.2 78
2018-01-19 22:00:00 11 16 Oeste 22 Oeste 0 1011.9 0.3 80
2018-01-19 21:00:00 11.1 15 Oeste 30 Noroeste 0 1011.7 0.9 81
2018-01-19 20:00:00 11.3 16 Oeste 32 Oeste 0 1011.8 1.5 79
2018-01-19 19:00:00 11.4 15 Oeste 33 Oeste 0 1011.6 1.4 78
2018-01-19 18:00:00 11.8 13 Oeste 26 Oeste 0 1010.8 1.1 71
2018-01-19 17:00:00 13.1 11 Oeste 32 Oeste 0 1010.3 0.1 66
2018-01-19 16:00:00 13.2 17 Oeste 26 Oeste 0 1010.2 -0.4 76
2018-01-19 15:00:00 13.6 16 Oeste 32 Oeste 0 1009.7 -0.6 65
2018-01-19 14:00:00 12.1 21 Oeste 42 Noroeste 0.2 1010.2 0.1 77
2018-01-19 13:00:00 12.2 24 Oeste 35 Oeste 0 1010.6 0.9 76
2018-01-19 12:00:00 12 19 Oeste 32 Oeste 0 1010.3 1.7 79
2018-01-19 11:00:00 11.6 22 Oeste 45 Oeste 0 1010.1 2.6 79
2018-01-19 10:00:00 10.4 19 Noroeste 37 Noroeste 0.4 1009.7 2.6 94
2018-01-19 09:00:00 11 18 Noroeste 37 Oeste 0.6 1008.6 1.6 95
2018-01-19 08:00:00 11.9 5 Oeste 21 Oeste 0.1 1007.5 0.7 86
2018-01-19 07:00:00 11.7 8 Oeste 18 Oeste 0 1007.1 -0.3 87
2018-01-19 06:00:00 11.6 5 Sudoeste 15 Sudoeste 0 1007 -0.4 78
2018-01-19 05:00:00 11.7 5 Sudoeste 21 Oeste 0 1006.8 -0.8 80
2018-01-19 04:00:00 12 13 Sudoeste 22 Sudoeste 0 1007.4 -0.6 80
2018-01-19 03:00:00 11.8 7 Sudoeste 15 Oeste 0 1007.4 -0.7 80
2018-01-19 02:00:00 11.8 13 Oeste 21 Oeste 0 1007.6 -0.4 80
2018-01-19 01:00:00 11.7 9 Sudoeste 21 Sudoeste 0 1008 -0.2 78
2018-01-19 00:00:00 11.8 12 Sudoeste 21 Oeste 0 1008.1 0 75
2018-01-18 23:00:00 11.4 9 Sudoeste 18 Sudoeste 0 1008 -0.1 74
2018-01-18 22:00:00 11.4 8 Sudoeste 22 Sur 0 1008.2 0.3 75
2018-01-18 21:00:00 11.5 13 Sudoeste 30 Oeste 0 1008.1 0.6 75
2018-01-18 20:00:00 12.6 21 Oeste 37 Oeste 0 1008.1 0.7 73
2018-01-18 19:00:00 11.9 15 Oeste 30 Oeste 0 1007.9 0.4 77
2018-01-18 18:00:00 12.3 4 Oeste 42 Oeste 0 1007.5 -0.5 77
2018-01-18 17:00:00 13.1 21 Oeste 45 Oeste 0 1007.4 -0.9 73
2018-01-18 16:00:00 13.1 28 Oeste 50 Oeste 0 1007.5 -1.5 73
2018-01-18 15:00:00 13.1 19 Oeste 33 Oeste 0 1008 -1.4 73
2018-01-18 14:00:00 12.6 19 Oeste 33 Noroeste 0 1008.3 -1.4 71
2018-01-18 13:00:00 11.7 14 Oeste 30 Oeste 0 1009 -0.5 65
2018-01-18 12:00:00 11 10 Sudoeste 32 Oeste 0 1009.4 0.1 68
2018-01-18 11:00:00 7.5 11 Sudoeste 21 Sudoeste 0 1009.7 0.4 75
2018-01-18 10:00:00 6.1 14 Sudoeste 26 Sudoeste 0 1009.5 0.3 81
2018-01-18 09:00:00 4.4 13 Sudoeste 21 Sudoeste 0 1009.3 0 90
2018-01-18 08:00:00 3.4 5 Sudoeste 11 Sudoeste 0 1009.3 -0.3 89
2018-01-18 07:00:00 3.9 7 Sudoeste 15 Sudoeste 0 1009.2 -1.1 87
2018-01-18 06:00:00 3.8 7 Sudoeste 13 Sur 0 1009.3 -1.5 86
2018-01-18 05:00:00 4.7 5 Sudoeste 15 Sur 0 1009.6 -2 85
2018-01-18 04:00:00 5.3 8 Sudoeste 22 Sudoeste 0 1010.3 -2.2 83
2018-01-18 03:00:00 5.4 10 Sudoeste 24 Sur 0 1010.8 -1.9 84
2018-01-18 02:00:00 5.7 13 Sudoeste 26 Sur 0 1011.6 -1.4 84
2018-01-18 01:00:00 6.6 11 Sudoeste 21 Sudoeste 0 1012.5 -0.5 82
2018-01-18 00:00:00 6.9 10 Sudoeste 18 Sur 0 1012.7 -0.4 82
2018-01-17 23:00:00 7.3 9 Sudoeste 15 Sudoeste 0 1013 0 83
2018-01-17 22:00:00 8.2 7 Sudoeste 21 Oeste 0 1013 -0.1 83
2018-01-17 21:00:00 9.3 10 Oeste 32 Sudoeste 0 1013.1 -0.1 83
2018-01-17 20:00:00 9.5 7 Oeste 21 Oeste 0 1013 -0.7 83
2018-01-17 19:00:00 10.1 9 Oeste 26 Oeste 0 1013.1 -0.7 80
2018-01-17 18:00:00 11.1 13 Oeste 28 Oeste 0 1013.2 -1.1 74
2018-01-17 17:00:00 12.2 15 Oeste 24 Noroeste 0 1013.7 -1.1 66
2018-01-17 16:00:00 13 16 Oeste 28 Oeste 0 1013.8 -1.3 61
2018-01-17 15:00:00 12.8 18 Oeste 30 Oeste 0 1014.3 -1.1 64
2018-01-17 14:00:00 12.6 21 Oeste 33 Oeste 0 1014.8 -0.3 66
2018-01-17 13:00:00 12.6 22 Oeste 35 Oeste 0 1015.1 0.3 68
2018-01-17 12:00:00 11.7 23 Noroeste 39 Noroeste 0 1015.4 1.3 70
2018-01-17 11:00:00 11.9 13 Oeste 32 Oeste 0 1015.1 1.6 67
2018-01-17 10:00:00 10.7 20 Oeste 37 Oeste 0 1014.8 1.8 74
2018-01-17 09:00:00 10.3 19 Oeste 41 Oeste 0 1014.1 1.2 76
2018-01-17 08:00:00 10.9 19 Oeste 41 Oeste 0 1013.5 1 69
2018-01-17 07:00:00 11.1 23 Oeste 46 Oeste 0 1013 0.5 73
2018-01-17 06:00:00 11.2 27 Oeste 61 Oeste 0 1012.9 1.3 74
2018-01-17 05:00:00 11.6 32 Oeste 61 Oeste 0 1012.5 1.3 76
2018-01-17 04:00:00 11.6 29 Noroeste 68 Oeste 0 1012.5 1.9 78
2018-01-17 03:00:00 12.2 46 Oeste 67 Oeste 0 1011.6 1.7 73
2018-01-17 02:00:00 12.4 37 Oeste 61 Oeste 0 1011.2 1.4 85
2018-01-17 01:00:00 12.5 36 Oeste 61 Oeste 0 1010.6 1.8 84
2018-01-17 00:00:00 12.6 23 Oeste 59 Noroeste 0 1009.9 1.7 86
2018-01-16 23:00:00 12.7 43 Oeste 65 Oeste 0 1009.8 1.9 88
2018-01-16 22:00:00 13.2 31 Oeste 52 Oeste 0 1008.8 1.4 87
2018-01-16 21:00:00 14.4 26 Oeste 52 Oeste 0 1008.2 0.9 77
2018-01-16 20:00:00 15 24 Oeste 46 Oeste 0 1007.9 0.8 73
2018-01-16 19:00:00 16.6 32 Oeste 52 Oeste 0 1007.4 0.7 62
2018-01-16 18:00:00 14.2 18 Noroeste 41 Oeste 0 1007.3 -0.3 81
2018-01-16 17:00:00 15.7 21 Oeste 41 Oeste 0 1007.1 -1.5 73
2018-01-16 16:00:00 16.7 19 Oeste 37 Oeste 0 1006.7 -2.2 67
2018-01-16 15:00:00 15.7 18 Oeste 39 Sudoeste 0 1007.6 -1.9 73
2018-01-16 14:00:00 14.6 23 Oeste 46 Oeste 0 1008.6 -0.2 78
2018-01-16 13:00:00 15 22 Oeste 41 Oeste 0 1008.9 0.5 76
2018-01-16 12:00:00 14.8 20 Oeste 30 Oeste 0 1009.5 1.2 79
2018-01-16 11:00:00 17.2 17 Oeste 37 Oeste -- 1008.8 1.1 60
2018-01-16 10:00:00 15 18 Sudoeste 30 Sudoeste -- 1008.4 0.6 65
2018-01-16 09:00:00 14.2 17 Sudoeste 35 Oeste 0 1008.3 0.7 67
2018-01-16 08:00:00 13.8 16 Sudoeste 33 Oeste 0 1007.7 0.4 70
2018-01-16 07:00:00 13.6 14 Oeste 33 Oeste 0 1007.8 0.8 73
2018-01-16 06:00:00 14 19 Oeste 46 Oeste 0 1007.6 0.7 72
2018-01-16 05:00:00 13.2 27 Oeste 41 Oeste 0 1007.3 0.2 80
2018-01-16 04:00:00 14.9 17 Oeste 54 Oeste 0 1007 -0.4 66
2018-01-16 03:00:00 15.4 29 Oeste 54 Oeste 0 1006.9 -0.1 64
2018-01-16 02:00:00 15.9 35 Oeste 61 Oeste 0 1007.1 0.8 63
2018-01-16 01:00:00 15.1 23 Oeste 37 Oeste 0 1007.4 0.7 64
2018-01-16 00:00:00 15.2 22 Oeste 45 Oeste 0 1007 0.9 64
2018-01-15 23:00:00 14.6 23 Oeste 37 Oeste 0 1006.3 1.1 64
2018-01-15 22:00:00 14.5 17 Sudoeste 30 Oeste 0 1006.7 1.6 64
2018-01-15 21:00:00 14 19 Sudoeste 42 Sudoeste 0 1006.1 1.3 64
2018-01-15 20:00:00 13.7 26 Sudoeste 42 Sudoeste 0 1005.2 0 63
2018-01-15 19:00:00 13.2 26 Sudoeste 48 Sur 0 1005.1 0 63
2018-01-15 18:00:00 13.2 28 Sudoeste 46 Sudoeste 0 1004.8 -0.4 61
2018-01-15 17:00:00 13.2 25 Sudoeste 39 Sudoeste 0 1005.2 -0.8 57
2018-01-15 16:00:00 13.4 23 Sudoeste 45 Sudoeste 0 1005.1 -2.5 52
2018-01-15 15:00:00 13.1 25 Sudoeste 41 Sudoeste 0 1005.2 -2.7 45
2018-01-15 14:00:00 12.5 26 Sudoeste 39 Sudoeste 0 1006 -2 42
2018-01-15 13:00:00 11.6 19 Sudoeste 32 Sudoeste 0 1007.6 -0.9 48
2018-01-15 12:00:00 10.4 20 Sudoeste 39 Sudoeste 0 1007.9 -1 53
2018-01-15 11:00:00 8.8 24 Sudoeste 39 Sudoeste 0 1008 -0.5 59
2018-01-15 10:00:00 6.6 19 Sudoeste 32 Sudoeste 0 1008.5 0 69
2018-01-15 09:00:00 5.8 15 Sudoeste 28 Sudoeste 0 1008.9 0.5 73
2018-01-15 08:00:00 5.8 17 Sudoeste 28 Sur 0 1008.5 0 73
2018-01-15 07:00:00 5.8 15 Sudoeste 28 Sudoeste 0 1008.5 -0.2 75
2018-01-15 06:00:00 5.9 13 Sudoeste 26 Sudoeste 0 1008.4 -0.5 76
2018-01-15 05:00:00 5.4 16 Sudoeste 26 Sur 0 1008.5 -0.5 82
2018-01-15 04:00:00 5.9 14 Sudoeste 22 Sudoeste 0 1008.7 -0.7 80
2018-01-15 03:00:00 6.2 12 Sudoeste 24 Sudoeste 0 1008.9 -0.4 79
2018-01-15 02:00:00 6.4 14 Sudoeste 24 Sudoeste 0 1009 0.1 81
2018-01-15 01:00:00 6.6 14 Sudoeste 18 Sur 0 1009.4 1.3 82
2018-01-15 00:00:00 7.3 8 Sudoeste 17 Sudoeste 0 1009.3 1.6 80
2018-01-14 23:00:00 6.6 8 Sudoeste 15 Sudoeste 0 1008.9 1.5 82
2018-01-14 22:00:00 7.6 8 Sudoeste 28 Oeste 0 1008.1 1.3 77
2018-01-14 21:00:00 9.1 15 Oeste 24 Oeste 0 1007.7 1.6 73
2018-01-14 20:00:00 8.8 9 Sudoeste 17 Oeste 0 1007.4 2 75
2018-01-14 19:00:00 8.9 11 Oeste 22 Oeste 0 1006.8 2.2 76
2018-01-14 18:00:00 9.8 11 Oeste 26 Oeste 0 1006.1 1.5 73
2018-01-14 17:00:00 10.6 10 Oeste 26 Oeste 0 1005.4 0.9 67
2018-01-14 16:00:00 10.9 19 Oeste 28 Oeste 0 1004.6 -0.4 68
2018-01-14 15:00:00 10.3 19 Oeste 30 Oeste 0 1004.6 -0.5 71
2018-01-14 14:00:00 10 11 Oeste 30 Oeste 0 1004.5 0.2 69
2018-01-14 13:00:00 10.4 7 Oeste 24 Oeste 0 1005 1.1 71
2018-01-14 12:00:00 9.3 10 Sudoeste 22 Sudoeste 0 1005.1 1.8 77
2018-01-14 11:00:00 6.9 15 Sudoeste 26 Sudoeste 0.5 1004.3 1.7 84
2018-01-14 10:00:00 6.4 9 Sudoeste 18 Sudoeste 0.1 1003.9 1.7 84
2018-01-14 09:00:00 6.2 3 Sudoeste 18 Sur 0.2 1003.3 1.3 83
2018-01-14 08:00:00 6 9 Sudoeste 18 Sur 0 1002.6 0.5 81
2018-01-14 07:00:00 5.7 9 Sudoeste 18 Sudoeste 0 1002.2 0.3 81
2018-01-14 06:00:00 6.6 10 Sudoeste 18 Sudoeste 0 1002 0.5 76
2018-01-14 05:00:00 7.2 10 Sudoeste 18 Sudoeste 0 1002.1 0.5 74
2018-01-14 04:00:00 6.9 8 Sudoeste 18 Sudoeste 0 1001.9 0.2 76
2018-01-14 03:00:00 6.7 12 Sudoeste 21 Sur 0 1001.5 0 76
2018-01-14 02:00:00 6.6 10 Sudoeste 21 Sur 0 1001.6 0.1 76
2018-01-14 01:00:00 6.7 11 Sudoeste 22 Sudoeste 0 1001.7 0.5 76
2018-01-14 00:00:00 7 14 Sudoeste 22 Sudoeste 0 1001.5 0.7 76
2018-01-13 23:00:00 7.7 8 Sudoeste 28 Oeste 0 1001.5 1.1 74
2018-01-13 22:00:00 7.3 10 Sudoeste 22 Sudoeste 0 1001.2 1.1 77
2018-01-13 21:00:00 7.9 12 Sudoeste 21 Sudoeste 0 1000.8 1.3 76
2018-01-13 20:00:00 8.1 10 Sudoeste 18 Sudoeste 0 1000.4 1.6 82
2018-01-13 19:00:00 8.7 8 Sudoeste 30 Oeste 0 1000.1 1.5 78
2018-01-13 18:00:00 10.2 21 Oeste 37 Oeste 0 999.5 1 70
2018-01-13 17:00:00 11 14 Oeste 26 Oeste 0 998.8 0.3 69
2018-01-13 16:00:00 10.7 12 Oeste 26 Oeste 0 998.6 -0.7 73
2018-01-13 15:00:00 9.7 6 Sudoeste 21 Oeste 0 998.5 -1 79
2018-01-13 14:00:00 9.5 9 Sudoeste 18 Sur 0.1 998.5 -0.9 79
2018-01-13 13:00:00 9 9 Sudoeste 22 Sur 0 999.3 0.2 80
2018-01-13 12:00:00 8.8 12 Sudoeste 24 Sudoeste 0 999.5 1 83
2018-01-13 11:00:00 8 16 Sudoeste 28 Sudoeste 0 999.4 0.7 87
2018-01-13 10:00:00 6.8 19 Sudoeste 32 Sudoeste 0.1 999.1 0.8 92
2018-01-13 09:00:00 6.6 0 Calma 21 Sudoeste 0.5 998.5 -0.2 91
2018-01-13 08:00:00 6.5 4 Sudoeste 15 Sudoeste 0.7 998.7 -0.6 91
2018-01-13 07:00:00 6.3 10 Sudoeste 18 Sur 1.1 998.3 -1.2 93
2018-01-13 06:00:00 6.3 13 Sur 18 Sur 2.3 998.7 -0.4 92
2018-01-13 05:00:00 6.6 7 Sudoeste 17 Oeste 1.5 999.3 -0.2 88
2018-01-13 04:00:00 7.5 10 Oeste 22 Sudoeste 0.1 999.5 -1.3 78
2018-01-13 03:00:00 7.7 10 Sudoeste 24 Sudoeste 0 999.1 -2.7 77
2018-01-13 02:00:00 8.3 13 Sur 30 Sudoeste 0 999.5 -3.2 71
2018-01-13 01:00:00 6.8 17 Sudoeste 28 Sudoeste 0 1000.8 -2.3 84
2018-01-13 00:00:00 7.8 12 Sur 26 Sudoeste 0 1001.8 -1.6 78
2018-01-12 23:00:00 8 15 Sudoeste 30 Sudoeste 0 1002.7 -1.3 80
2018-01-12 22:00:00 8 11 Sudoeste 22 Sudoeste 0 1003.1 -1.6 79
2018-01-12 21:00:00 7.6 8 Sur 18 Sur 0 1003.4 -1.9 80
2018-01-12 20:00:00 8 12 Sur 17 Sur 0 1004 -1.9 80
2018-01-12 19:00:00 7 6 Sur -- -- 0 1004.7 -1.6 90
2018-01-12 18:00:00 9 5 Este 8 Este 0 1005.3 -1.5 81
2018-01-12 17:00:00 10.6 0 Calma 9 Sudeste 0 1005.9 -1.5 78
2018-01-12 16:00:00 10.7 0 Calma 15 Sur 0 1006.3 -2 72
2018-01-12 15:00:00 10.3 4 Sur 11 Sur 0 1006.8 -2.6 72
2018-01-12 14:00:00 10.2 5 Sur 22 Sur 0 1007.4 -2.3 73
2018-01-12 13:00:00 8.7 10 Sur 22 Sudoeste 0 1008.3 -1.2 80
2018-01-12 12:00:00 7.9 15 Sudoeste 35 Sudoeste 0 1009.4 0 81
2018-01-12 11:00:00 6.9 12 Sudoeste 26 Sudoeste 0 1009.7 0 86
2018-01-12 10:00:00 6.1 17 Sudoeste 24 Sudoeste 0 1009.5 -0.2 90
2018-01-12 09:00:00 6.1 11 Sudoeste 21 Sur 0 1009.4 -0.8 90
2018-01-12 08:00:00 6.5 13 Sudoeste 21 Sudoeste 0 1009.7 -0.8 89
2018-01-12 07:00:00 6.6 9 Sudoeste 18 Sur 0 1009.7 -1.3 88
2018-01-12 06:00:00 7 7 Sudoeste 15 Sudoeste 0 1010.2 -1.1 87
2018-01-12 05:00:00 7.3 6 Sudoeste 13 Sudoeste 0 1010.5 -0.8 85
2018-01-12 04:00:00 8.1 6 Sudoeste 15 Sudoeste 0 1011 -0.7 83
2018-01-12 03:00:00 8 8 Sudoeste 17 Sudoeste 0 1011.3 -0.3 83
2018-01-12 02:00:00 7.9 10 Sudoeste 21 Sudoeste 0 1011.3 -0.2 84
2018-01-12 01:00:00 8 11 Sudoeste 22 Sudoeste 0 1011.7 0.5 84
2018-01-12 00:00:00 8.3 10 Sudoeste 24 Sudoeste 0 1011.6 0.8 84
2018-01-11 23:00:00 8.7 11 Sudoeste 22 Sudoeste 0 1011.5 1.1 86
2018-01-11 22:00:00 8.6 5 Sudoeste 33 Oeste 0.2 1011.2 1.5 88
2018-01-11 21:00:00 9.3 21 Oeste 42 Oeste 0 1010.8 1.7 86
2018-01-11 20:00:00 8.9 15 Oeste 42 Oeste 0.1 1010.4 2.1 89
2018-01-11 19:00:00 8.7 33 Oeste 54 Oeste 0.7 1009.7 2 88
2018-01-11 18:00:00 8.4 30 Oeste 59 Oeste 0.1 1009.1 1.9 87
2018-01-11 17:00:00 8.4 34 Oeste 59 Oeste 0.4 1008.3 1.5 88
2018-01-11 16:00:00 9.3 36 Oeste 55 Oeste 0 1007.7 0.5 76
2018-01-11 15:00:00 9.3 37 Oeste 71 Oeste 0 1007.2 -0.3 73
2018-01-11 14:00:00 9.3 38 Oeste 67 Oeste 0 1006.8 -0.5 71
2018-01-11 13:00:00 9.5 36 Oeste 76 Oeste 0 1007.2 1.1 70
2018-01-11 12:00:00 9.3 34 Oeste 59 Oeste 0.4 1007.5 2 70
2018-01-11 11:00:00 8.3 33 Oeste 59 Oeste 0.2 1007.3 2.3 74
2018-01-11 10:00:00 6.9 28 Oeste 55 Oeste 0.4 1006.1 2 80
2018-01-11 09:00:00 7.5 27 Oeste 54 Oeste 0.1 1005.5 2.1 71
2018-01-11 08:00:00 6.9 38 Oeste 65 Oeste 2.9 1005 1.6 78
2018-01-11 07:00:00 6.8 34 Oeste 59 Oeste 0.1 1004.1 1.3 81
2018-01-11 06:00:00 6.4 29 Oeste 61 Oeste 0.9 1003.4 1.2 81
2018-01-11 05:00:00 7 34 Oeste 54 Oeste 2.1 1003.4 1.7 85
2018-01-11 04:00:00 6.8 28 Oeste 63 Oeste 0.8 1002.8 0.7 86
2018-01-11 03:00:00 6.8 37 Oeste 80 Oeste 0.6 1002.2 0.5 80
2018-01-11 02:00:00 7.2 29 Oeste 68 Oeste 0.4 1001.7 1 78
2018-01-11 01:00:00 7.3 34 Oeste 55 Oeste 0.5 1002.1 1.4 80
2018-01-11 00:00:00 8 40 Oeste 59 Sudoeste 0 1001.7 1.2 69
2018-01-10 23:00:00 7.7 18 Sudoeste 35 Sur 0 1000.7 -0.3 70
2018-01-10 22:00:00 7.4 19 Sudoeste 35 Sudoeste 0 1000.7 0.6 70
2018-01-10 21:00:00 7.5 24 Sudoeste 45 Oeste 0 1000.5 1.1 72
2018-01-10 20:00:00 8.3 30 Oeste 58 Oeste 0 1001 2.3 68
2018-01-10 19:00:00 8.7 36 Oeste 67 Oeste 0 1000.1 3.2 61
2018-01-10 18:00:00 8 42 Oeste 87 Oeste 1.1 999.4 2.8 68
2018-01-10 17:00:00 7.7 53 Oeste 109 Oeste 1.1 998.7 3.6 73
2018-01-10 16:00:00 9.4 23 Oeste 82 Oeste 0.4 996.9 1.1 71
2018-01-10 15:00:00 8 46 Oeste 95 Oeste 0.4 996.6 1.8 77
2018-01-10 14:00:00 13.1 29 Oeste 52 Oeste 0 995.1 0.8 60
2018-01-10 13:00:00 10.3 28 Oeste 54 Oeste 0.2 995.8 0.8 80
2018-01-10 12:00:00 8.6 6 Sur 15 Sudoeste 0 994.8 -1 71
2018-01-10 11:00:00 9.2 5 Sudeste 17 Sudeste 0 994.3 -2.2 64
2018-01-10 10:00:00 7.6 5 Sudeste 13 Sudeste 0 995 -2.1 74
2018-01-10 09:00:00 6.5 4 Sudeste 17 Sudoeste 0 995.8 -1.8 69
2018-01-10 08:00:00 8.5 5 Sudoeste 24 Oeste 0 996.5 -1.5 63
2018-01-10 07:00:00 8.3 9 Sudoeste 18 Sudoeste 0 997.1 -0.6 67
2018-01-10 06:00:00 8.5 8 Sudoeste 30 Oeste 0 997.6 0 67
2018-01-10 05:00:00 9.4 15 Sudoeste 24 Oeste 0 998 0.3 65
2018-01-10 04:00:00 10.3 13 Sudoeste 32 Sudoeste 0 997.7 0 63
2018-01-10 03:00:00 10.6 13 Sudoeste 24 Oeste 0 997.6 0.1 63
2018-01-10 02:00:00 11.1 14 Oeste 32 Sudoeste 0 997.7 0.7 67
2018-01-10 01:00:00 10.5 13 Oeste 24 Oeste 0 997.7 1.5 73
2018-01-10 00:00:00 10.7 18 Oeste 54 Oeste 0.2 997.5 2 74
2018-01-09 23:00:00 11.7 21 Oeste 39 Oeste 0 997 2.1 73
2018-01-09 22:00:00 11 19 Oeste 52 Noroeste 0 996.2 1.8 81
2018-01-09 21:00:00 12.4 18 Oeste 32 Oeste 0 995.5 1.7 63
2018-01-09 20:00:00 12 15 Sudoeste 32 Sudoeste 0 994.9 1.8 63
2018-01-09 19:00:00 11.7 13 Sudoeste 26 Sudoeste 0 994.4 1.8 67
2018-01-09 18:00:00 12.4 6 Sudoeste 37 Oeste 0 993.8 2.2 66
2018-01-09 17:00:00 13.6 22 Oeste 39 Oeste 0 993.1 1.5 64
2018-01-09 16:00:00 10.7 13 Oeste 22 Oeste 0 992.6 0.3 84
2018-01-09 15:00:00 10.2 0 Calma 26 Sur 0 991.6 -1.5 86
2018-01-09 14:00:00 8.8 6 Sur 15 Sur 0.1 991.6 -1.2 89
2018-01-09 13:00:00 8 11 Sur 18 Sur 0.8 992.3 -0.3 87
2018-01-09 12:00:00 7.4 12 Sur 21 Sur 0.9 993.1 0.9 82
2018-01-09 11:00:00 8.7 14 Sudoeste 22 Sudoeste 0 992.8 0.8 67
2018-01-09 10:00:00 8 17 Sudoeste 26 Sudoeste 0 992.6 -0.1 68
2018-01-09 09:00:00 7.9 15 Sudoeste 28 Sur 0 992.2 -2.1 69
2018-01-09 08:00:00 7.9 20 Sur 33 Sur 0 992 -2.8 71
2018-01-09 07:00:00 8.1 21 Sur 32 Sur 0 992.7 -1.7 71
2018-01-09 06:00:00 7.9 17 Sur 24 Sur 0 994.3 0.2 73
2018-01-09 05:00:00 8 9 Sudoeste 26 Sudoeste 0 994.8 -0.1 72
2018-01-09 04:00:00 7.4 10 Sudoeste 28 Sudoeste 0 994.4 -1 77
2018-01-09 03:00:00 9.5 16 Sudoeste 28 Sur 0 994.1 -2 70
2018-01-09 02:00:00 9.3 15 Sur 24 Sur 0 994.9 -1.6 72
2018-01-09 01:00:00 8.7 14 Sudoeste 22 Sudoeste 0 995.4 -1.2 77
2018-01-09 00:00:00 9.2 12 Sudoeste 17 Sudoeste 0 996.1 -0.4 77
2018-01-08 23:00:00 8.9 9 Sur 18 Sur 0 996.5 0 81
2018-01-08 22:00:00 9.3 5 Sudoeste 22 Sudoeste 0 996.6 0.2 87
2018-01-08 21:00:00 8.9 0 Calma 13 Sudoeste 0 996.5 0.2 86
2018-01-08 20:00:00 9.9 5 Sudoeste 13 Sudoeste 0 996.5 0.1 85
2018-01-08 19:00:00 10.6 4 Sudoeste 13 Oeste 0 996.4 0.7 83
2018-01-08 18:00:00 11.2 7 Oeste 18 Sudoeste 0 996.3 0.8 79
2018-01-08 17:00:00 11.7 4 Nordeste 11 Este 0 996.4 0.5 81
2018-01-08 16:00:00 12.3 0 Calma 22 Sudoeste 0 995.7 -0.6 73
2018-01-08 15:00:00 12.1 7 Sudoeste 22 Sur 0 995.5 -1.4 76
2018-01-08 14:00:00 11.1 0 Calma 15 Sudoeste 0 995.9 -0.7 78
2018-01-08 13:00:00 10.1 6 Oeste 18 Sudoeste 0 996.3 0.3 79
2018-01-08 12:00:00 8.7 5 Sudoeste 24 Sudoeste 0 996.9 1.6 82
2018-01-08 11:00:00 7.8 13 Sudoeste 28 Sudoeste 0 996.6 1.6 84
2018-01-08 10:00:00 7.4 14 Sudoeste 35 Sudoeste 0 996 1.2 85
2018-01-08 09:00:00 6.9 17 Sudoeste 30 Sudoeste 0 995.3 0.8 87
2018-01-08 08:00:00 6.5 13 Sudoeste 22 Sudoeste 0 995 0.8 91
2018-01-08 07:00:00 6.2 11 Sudoeste 18 Sudoeste 0 994.8 1 91
2018-01-08 06:00:00 6.3 10 Sudoeste 22 Sudoeste 0 994.5 1.5 92
2018-01-08 05:00:00 6.6 10 Sudoeste 18 Sudoeste 0 994.2 1.4 92
2018-01-08 04:00:00 6.6 10 Sudoeste 18 Sur 0 993.8 1 92
2018-01-08 03:00:00 6.4 11 Sudoeste 18 Sudoeste 0 993 0.4 93
2018-01-08 02:00:00 6.6 10 Sudoeste 18 Sur 0 992.8 0.7 92
2018-01-08 01:00:00 6.9 12 Sudoeste 17 Sudoeste 0 992.8 1.1 91
2018-01-08 00:00:00 7.4 9 Sudoeste 22 Sur 0 992.6 1.3 90
2018-01-07 23:00:00 7.2 13 Sudoeste 22 Sudoeste 0 992.1 1.7 92
2018-01-07 22:00:00 7.5 14 Sudoeste 24 Sudoeste 0 991.7 1.7 91
2018-01-07 21:00:00 7.4 13 Sudoeste 26 Sur 0 991.3 2.2 93
2018-01-07 20:00:00 7.3 17 Sudoeste 24 Sur 0 990.4 1.7 94
2018-01-07 19:00:00 7.4 17 Sudoeste 26 Sudoeste 0 990 1.6 95
2018-01-07 18:00:00 7.4 17 Sudoeste 28 Oeste 0 989.1 0.2 95
2018-01-07 17:00:00 10.2 3 Sudeste 28 Noroeste 3.1 988.7 -0.7 96
2018-01-07 16:00:00 9.6 4 Sur 26 Oeste 5.2 988.4 -1.4 95
2018-01-07 15:00:00 9.5 3 Oeste 17 Norte 1.3 988.9 -1.8 93
2018-01-07 14:00:00 8.8 2 Nordeste 28 Norte 4 989.4 -1.8 93
2018-01-07 13:00:00 8.7 3 Oeste 26 Nordeste 1.9 989.8 -1 92
2018-01-07 12:00:00 8.2 6 Norte 26 Nordeste 1.7 990.7 -0.3 91
2018-01-07 11:00:00 7.9 9 Nordeste 46 Nordeste 0.7 991.2 0.5 88
2018-01-07 10:00:00 8.5 12 Nordeste 37 Nordeste 0.2 990.8 0.2 80
2018-01-07 09:00:00 7.7 13 Nordeste 42 Nordeste 1.4 991 0.4 86
2018-01-07 08:00:00 9.5 20 Este 41 Este 0 990.7 -0.1 72
2018-01-07 07:00:00 8.7 8 Nordeste 30 Norte 0 990.6 -0.6 73
2018-01-07 06:00:00 8.6 14 Nordeste 37 Nordeste 0 990.6 -0.4 74
2018-01-07 05:00:00 7.9 3 Oeste 24 Sudeste 0 990.8 -0.4 79
2018-01-07 04:00:00 6.5 5 Sudeste 21 Norte 0.3 991.2 -0.5 89
2018-01-07 03:00:00 4.5 8 Sudoeste 18 Sudoeste 0.2 991 -1.1 93
2018-01-07 02:00:00 4.5 10 Sudoeste 18 Sudoeste 1.5 991.2 -1 94
2018-01-07 01:00:00 4.8 12 Sudoeste 22 Sur 4.2 991.7 -0.6 93
2018-01-07 00:00:00 4.5 8 Sudoeste 22 Sur 0.3 992.1 0 92
2018-01-06 23:00:00 4.1 8 Sudoeste 15 Sudoeste 0 992.2 0.4 92
2018-01-06 22:00:00 4.6 5 Sudoeste 17 Sudoeste 0.2 992.3 0.6 91
2018-01-06 21:00:00 4.8 12 Sudoeste 22 Sur 0.3 992.1 0.9 90
2018-01-06 20:00:00 4.7 9 Sudoeste 15 Sudoeste 0 991.8 0.7 91
2018-01-06 19:00:00 4.9 3 Este 13 Sur 0.5 991.7 0.9 90
2018-01-06 18:00:00 4.9 7 Sudoeste 30 Oeste 0.2 991.2 1 89
2018-01-06 17:00:00 5.9 19 Oeste 28 Oeste 2.3 991.1 0.7 87
2018-01-06 16:00:00 6.7 9 Noroeste 33 Noroeste 0.8 990.8 -0.2 83
2018-01-06 15:00:00 8.9 18 Noroeste 30 Oeste 0 990.2 -0.9 69
2018-01-06 14:00:00 9.1 16 Noroeste 28 Oeste 0 990.4 -0.4 63
2018-01-06 13:00:00 8.1 6 Sudoeste 21 Sur 0 991 0.5 66
2018-01-06 12:00:00 7.5 12 Sudoeste 21 Sudoeste 0 991.1 1.2 66
2018-01-06 11:00:00 5.9 7 Sudoeste 17 Sudoeste 0 990.8 1.3 70
2018-01-06 10:00:00 4.8 9 Sudoeste 18 Sudoeste 0 990.5 1.3 73
2018-01-06 09:00:00 4.8 5 Sudoeste 28 Sudoeste 0 989.9 0.6 72
2018-01-06 08:00:00 5 10 Sudoeste 18 Sudoeste 0 989.5 -0.2 72
2018-01-06 07:00:00 5.2 8 Sudoeste 24 Sudoeste 0 989.2 -1 71
2018-01-06 06:00:00 5.4 16 Sudoeste 22 Sudoeste 0 989.3 -0.9 71
2018-01-06 05:00:00 5.3 12 Sudoeste 18 Sudoeste 0 989.7 -0.8 71
2018-01-06 04:00:00 5.9 10 Sudoeste 17 Sudoeste 0 990.2 -1 68
2018-01-06 03:00:00 5.8 8 Sudoeste 18 Sudoeste 0 990.2 -1.4 70
2018-01-06 02:00:00 6.2 8 Sudoeste 18 Sudoeste 0 990.5 -0.9 69
2018-01-06 01:00:00 6.2 9 Sudoeste 18 Sudoeste 0 991.2 -0.2 71
2018-01-06 00:00:00 6.8 13 Sudoeste 26 Oeste 0 991.6 0.3 71
2018-01-05 23:00:00 7.8 18 Oeste 37 Oeste 0 991.4 -0.2 64
2018-01-05 22:00:00 8.3 23 Oeste 39 Oeste 0 991.4 -0.3 61
2018-01-05 21:00:00 8.5 18 Oeste 32 Oeste 0 991.3 -0.7 63
2018-01-05 20:00:00 8.1 16 Oeste 26 Sudoeste 0 991.6 -0.8 66
2018-01-05 19:00:00 7.9 9 Sudoeste 24 Oeste 0 991.7 -0.5 66
2018-01-05 18:00:00 8.8 12 Sudoeste 39 Oeste 0.1 992 -0.3 67
2018-01-05 17:00:00 8.1 28 Oeste 65 Noroeste 0.1 992.4 -0.4 80
2018-01-05 16:00:00 11 17 Oeste 39 Oeste 0 992.2 -1.4 66
2018-01-05 15:00:00 11.1 18 Oeste 45 Oeste 0 992.3 -1.8 67
2018-01-05 14:00:00 11 31 Oeste 48 Oeste 0 992.8 -1 65
2018-01-05 13:00:00 11 23 Oeste 42 Oeste 0 993.6 -0.2 73
2018-01-05 12:00:00 10.5 20 Oeste 35 Oeste 0 994.1 0.8 76
2018-01-05 11:00:00 10.3 18 Sudoeste 41 Oeste 0.1 993.8 -0.2 74
2018-01-05 10:00:00 9.4 16 Sudoeste 33 Sudoeste 0 993.8 -0.9 81
2018-01-05 09:00:00 9.3 21 Sudoeste 37 Sudoeste 0.2 993.3 -1.2 84
2018-01-05 08:00:00 9.5 23 Sudoeste 37 Sudoeste 1.3 994 0.3 84
2018-01-05 07:00:00 9.9 26 Oeste 50 Noroeste 0.8 994.7 2.1 90
2018-01-05 06:00:00 10.2 34 Noroeste 68 Oeste 2.9 994.5 1.8 94
2018-01-05 05:00:00 11.7 50 Oeste 84 Noroeste 0.2 993.7 0.2 88
2018-01-05 04:00:00 17.3 16 Oeste 37 Oeste 0 992.6 -2.6 45
2018-01-05 03:00:00 17.5 18 Oeste 35 Oeste 0 992.7 -4.1 45
2018-01-05 02:00:00 17.3 9 Oeste 33 Sudoeste 0 993.5 -3.8 47
2018-01-05 01:00:00 17.6 24 Oeste 48 Oeste 0 995.2 -3.1 47
2018-01-05 00:00:00 17.3 22 Oeste 42 Oeste 0 996.8 -2.8 50
2018-01-04 23:00:00 17.2 27 Oeste 58 Oeste 0 997.3 -2.4 51
2018-01-04 22:00:00 17 32 Oeste 61 Oeste 0 998.3 -1.8 52
2018-01-04 21:00:00 17.1 33 Oeste 63 Oeste 0 999.6 -0.9 52
2018-01-04 20:00:00 17.2 33 Sudoeste 61 Oeste 0 999.7 -1.9 52
2018-01-04 19:00:00 17.3 34 Sudoeste 59 Sudoeste 0 1000.1 -1.5 52
2018-01-04 18:00:00 17.3 28 Sudoeste 59 Sudoeste 0 1000.5 -2.8 51
2018-01-04 17:00:00 17.4 28 Sudoeste 61 Sudoeste 0 1001.6 -2.2 54
2018-01-04 16:00:00 18.6 31 Sudoeste 74 Oeste 0 1001.6 -3.2 52
2018-01-04 15:00:00 18.1 32 Oeste 59 Oeste 0 1003.3 -2.7 55
2018-01-04 14:00:00 17 30 Oeste 50 Oeste 0 1003.8 -1.7 59
2018-01-04 13:00:00 17.8 27 Oeste 55 Oeste 0 1004.8 -0.8 53
2018-01-04 12:00:00 18.1 31 Oeste 67 Oeste 0 1006 0 49
2018-01-04 11:00:00 17.4 39 Oeste 58 Oeste 0 1005.5 -0.6 51
2018-01-04 10:00:00 17 34 Oeste 55 Oeste 0 1005.6 -0.9 54
2018-01-04 09:00:00 16.9 28 Oeste 50 Sudoeste 0 1006 -1.1 55
2018-01-04 08:00:00 16.5 23 Oeste 48 Oeste 0 1006.1 -1.3 61
2018-01-04 07:00:00 16.8 33 Oeste 52 Oeste 0 1006.5 -1.2 60
2018-01-04 06:00:00 17.2 22 Oeste 46 Oeste 0 1007.1 -0.5 58
2018-01-04 05:00:00 17.3 31 Oeste 59 Oeste 0 1007.4 -1 62
2018-01-04 04:00:00 16.1 21 Oeste 37 Oeste 0 1007.7 -1.5 73
2018-01-04 03:00:00 17.4 23 Oeste 37 Oeste 0 1007.6 -2.3 64
2018-01-04 02:00:00 17.6 24 Oeste 55 Oeste 0 1008.4 -1.6 62
2018-01-04 01:00:00 18.2 40 Oeste 61 Oeste 0 1009.2 -0.9 58
2018-01-04 00:00:00 18.3 33 Oeste 54 Oeste 0 1009.9 -0.4 59
2018-01-03 23:00:00 17.8 28 Oeste 42 Oeste 0 1010 -0.7 62
2018-01-03 22:00:00 18 21 Oeste 32 Oeste 0 1010.1 -0.9 63
2018-01-03 21:00:00 18.4 20 Oeste 37 Oeste 0 1010.3 -0.2 64
2018-01-03 20:00:00 16.4 11 Noroeste 37 Noroeste 0 1010.7 0.4 78
2018-01-03 19:00:00 17.4 16 Noroeste 46 Oeste 0 1011 0.4 73
2018-01-03 18:00:00 19.6 30 Oeste 46 Oeste 0 1010.5 -0.8 62
2018-01-03 17:00:00 19.2 23 Oeste 46 Oeste 0 1010.3 -1.5 65
2018-01-03 16:00:00 16 16 Oeste 35 Oeste 0 1010.6 -1.6 85
2018-01-03 15:00:00 15.1 22 Oeste 35 Noroeste 0 1011.3 -1.1 89
2018-01-03 14:00:00 16.1 17 Oeste 35 Oeste 0 1011.8 -0.4 83
2018-01-03 13:00:00 16.9 22 Oeste 32 Oeste 0 1012.2 0.4 79
2018-01-03 12:00:00 16.1 15 Oeste 28 Oeste 0 1012.4 0.8 83
2018-01-03 11:00:00 15.2 16 Oeste 26 Oeste 0 1012.2 0.6 87
2018-01-03 10:00:00 15.7 8 Oeste 30 Oeste 0 1011.8 1.1 87
2018-01-03 09:00:00 16.1 16 Oeste 35 Oeste 0 1011.6 1.4 82
2018-01-03 08:00:00 15.3 14 Oeste 33 Noroeste 0 1011.6 1.7 84
2018-01-03 07:00:00 16.3 20 Oeste 48 Oeste 0 1010.7 0.9 79
2018-01-03 06:00:00 19.1 26 Oeste 61 Oeste 0 1010.2 0.6 64
2018-01-03 05:00:00 19.9 34 Oeste 58 Oeste 0 1009.9 0.4 60
2018-01-03 04:00:00 19.4 27 Oeste 52 Oeste 0 1009.8 0 63
2018-01-03 03:00:00 19.7 29 Oeste 54 Sudoeste 0 1009.6 -0.3 61
2018-01-03 02:00:00 19.1 26 Oeste 50 Oeste 0 1009.5 -0.1 62
2018-01-03 01:00:00 19.3 28 Oeste 65 Oeste 0 1009.8 0.2 61
2018-01-03 00:00:00 19 25 Oeste 46 Oeste 0 1009.9 0 65
2018-01-02 23:00:00 18.8 22 Oeste 39 Oeste 0 1009.6 -0.3 65
2018-01-02 22:00:00 18.4 14 Oeste 35 Sudoeste 0 1009.6 -0.3 67
2018-01-02 21:00:00 18.9 19 Oeste 41 Oeste 0 1009.9 0.3 65
2018-01-02 20:00:00 18.8 18 Oeste 30 Oeste 0 1009.9 -0.1 66
2018-01-02 19:00:00 17 10 Oeste 22 Oeste 0 1009.9 0.4 74
2018-01-02 18:00:00 18.2 17 Oeste 32 Oeste 0 1009.6 1 67
2018-01-02 17:00:00 16.8 17 Noroeste 39 Oeste 0 1010 0.8 78
2018-01-02 16:00:00 16.8 20 Oeste 37 Oeste 0 1009.5 -1.4 78
2018-01-02 15:00:00 19.8 21 Oeste 41 Oeste 0 1008.6 -2.4 62
2018-01-02 14:00:00 19.8 22 Oeste 41 Oeste 0 1009.2 -1.1 63
2018-01-02 13:00:00 18 19 Oeste 50 Oeste 0 1010.9 1.1 72
2018-01-02 12:00:00 18.5 27 Oeste 42 Oeste 0 1011 1.9 65
2018-01-02 11:00:00 18.1 25 Oeste 48 Sudoeste 0 1010.3 1.7 64
2018-01-02 10:00:00 17.3 26 Oeste 46 Sudoeste 0 1009.8 1.2 64
2018-01-02 09:00:00 16.5 23 Sudoeste 48 Oeste 0 1009.1 0.4 63
2018-01-02 08:00:00 15.6 24 Sudoeste 54 Sudoeste 0 1008.6 -0.4 64
2018-01-02 07:00:00 14.9 28 Sudoeste 46 Sudoeste 0 1008.6 -0.8 64
2018-01-02 06:00:00 14.8 26 Sudoeste 48 Sudoeste 0 1008.7 -1.2 64
2018-01-02 05:00:00 14.9 24 Sudoeste 41 Sudoeste 0 1009 -1.8 63
2018-01-02 04:00:00 14.7 31 Oeste 46 Sudoeste 0 1009.4 -2.7 63
2018-01-02 03:00:00 14.1 16 Sudoeste 37 Oeste 0 1009.9 -1.9 66
2018-01-02 02:00:00 13.9 15 Oeste 33 Oeste 0 1010.8 -0.3 69
2018-01-02 01:00:00 14.3 28 Oeste 54 Sudoeste 0 1012.1 1 66
2018-01-02 00:00:00 13.1 23 Oeste 35 Oeste 0 1011.8 0.1 85
2018-01-01 23:00:00 12.3 5 Sudoeste 13 Sudoeste 0 1011.1 -0.6 96
2018-01-01 22:00:00 12.1 5 Sudoeste 21 Sudoeste 0.2 1011.1 -0.1 99
2018-01-01 21:00:00 12.2 5 Noroeste 37 Oeste 0.2 1011.7 1.2 99
2018-01-01 20:00:00 11.9 24 Oeste 59 Oeste 2.5 1011.7 1.7 99
2018-01-01 19:00:00 12.1 40 Oeste 55 Oeste 2.9 1011.2 2.8 98
2018-01-01 18:00:00 12 35 Oeste 78 Noroeste 0.9 1010.5 3.7 94
2018-01-01 17:00:00 12.5 47 Oeste 87 Noroeste 4.3 1010 3.8 92
2018-01-01 16:00:00 13.3 29 Oeste 72 Noroeste 0.8 1008.4 1.5 86
2018-01-01 15:00:00 16.1 49 Oeste 85 Oeste 0 1006.8 0.3 62
2018-01-01 14:00:00 16.3 43 Oeste 82 Oeste 0 1006.2 -0.2 58
2018-01-01 13:00:00 16.1 47 Oeste 84 Sudoeste 0 1006.9 1 58
2018-01-01 12:00:00 16.1 55 Oeste 89 Sudoeste 0 1006.5 0.4 54
2018-01-01 11:00:00 15.1 40 Oeste 84 Oeste 0 1006.4 -0.5 54
2018-01-01 10:00:00 13.8 45 Oeste 78 Oeste 0 1005.9 -1.1 56
2018-01-01 09:00:00 13.4 40 Oeste 78 Oeste 0 1006.1 -1.7 54
2018-01-01 08:00:00 13.5 44 Oeste 85 Oeste 0 1006.9 -2 52
2018-01-01 07:00:00 13.3 37 Oeste 67 Sudoeste 0 1007 -2.9 49
2018-01-01 06:00:00 13 28 Oeste 59 Sudoeste 0 1007.8 -1.8 50
2018-01-01 05:00:00 11.9 18 Sudoeste 45 Sudoeste 0 1008.9 -1.4 50
2018-01-01 04:00:00 11.7 21 Sudoeste 41 Sudoeste 0 1009.9 -0.6 52
2018-01-01 03:00:00 11.5 22 Sudoeste 39 Sudoeste 0 1009.6 -0.8 58
2018-01-01 02:00:00 11.4 24 Sudoeste 42 Sudoeste 0 1010.3 0.6 59
2018-01-01 01:00:00 11.3 22 Oeste 46 Sudoeste 0 1010.5 1.2 57
2018-01-01 00:00:00 11.3 28 Oeste 58 Oeste 0 1010.4 1.7 56
2017-12-31 23:00:00 11.7 41 Oeste 67 Oeste 0 1009.7 1.6 55
2017-12-31 22:00:00 11.5 39 Oeste 74 Oeste 0 1009.3 2 56
2017-12-31 21:00:00 10.2 17 Sudoeste 65 Oeste 0 1008.7 2.9 60
2017-12-31 20:00:00 11.1 35 Oeste 63 Oeste 0 1008.1 3.4 55
2017-12-31 19:00:00 10.7 36 Oeste 74 Oeste 0 1007.3 3.2 60
2017-12-31 18:00:00 10.2 41 Oeste 65 Oeste 0 1005.8 4.1 61
2017-12-31 17:00:00 9.2 32 Oeste 87 Oeste 2.4 1004.7 3 67
2017-12-31 16:00:00 9.1 42 Oeste 76 Oeste 1.4 1004.1 2.1 86
2017-12-31 15:00:00 10.5 25 Sudoeste 46 Sudoeste 0 1001.7 0.5 74
2017-12-31 14:00:00 9.6 14 Sudoeste 80 Oeste 1.2 1001.7 1.8 82
2017-12-31 13:00:00 10.7 33 Oeste 63 Oeste 0.9 1002 5 78
2017-12-31 12:00:00 10.3 45 Oeste 89 Oeste 4 1001.2 3.3 88
2017-12-31 11:00:00 12.2 30 Noroeste 52 Noroeste 0.4 999.9 1.3 85
2017-12-31 10:00:00 14.4 2 Oeste 21 Sudeste 0 997 -2.4 55
2017-12-31 09:00:00 11.5 5 Sudeste 17 Este 0 997.9 -2.1 60
2017-12-31 08:00:00 11.3 3 Sur 13 Sudoeste 0 998.6 -2.4 63
2017-12-31 07:00:00 12.4 6 Sudoeste 21 Sudoeste 0 999.4 -1.4 59
2017-12-31 06:00:00 13.3 13 Sudoeste 22 Oeste 0 1000 -2 57
2017-12-31 05:00:00 11.5 0 Calma 15 Sudoeste 0 1001 -2 65
2017-12-31 04:00:00 13.6 10 Sudoeste 21 Sudoeste 0 1000.8 -2.9 56
2017-12-31 03:00:00 13.6 12 Sudoeste 24 Sudoeste 0 1002 -2.3 55
2017-12-31 02:00:00 11.9 9 Sudoeste 17 Sur 0 1003 -1.6 63
2017-12-31 01:00:00 11.3 8 Sudoeste 15 Sudoeste 0 1003.7 -1.3 66